Southern California Logo

Chula Vista, CA Condo Real Estate Listings

153 Total Real Estate Listings * Click on table heading to sort
Date Posted Property Type Style Address Price Living Area Lot Size Price/Sq Ft.
2017-03-27 Condo Contemporary 1420 Caminito Lucca Chula Vista, CA 91915 $369,000 1,296 sq. ft. $285
2017-03-26 Condo 1542 Apache Drive Chula Vista, CA 91910 $425,000 1,721 sq. ft. $247
2017-03-25 Condo 620 Telegraph Canyon Chula Vista, CA 91910 $299,900 1,168 sq. ft. 147,233 sq. ft. $257
2017-03-24 Condo Contemporary 2161 Barrel Ct Chula Vista, CA 91915 $420,000 1,581 sq. ft. $266
2017-03-24 Condo Mediterranean/Spanish 427 Sanibelle Cir Chula Vista, CA 91910 $414,900 1,570 sq. ft. $264
2017-03-24 Condo 285 Moss Street Chula Vista, CA 91911 $229,900 785 sq. ft. $293
2017-03-24 Condo 594 Portsmouth Chula Vista, CA 91911 $359,988 1,274 sq. ft. 337,590 sq. ft. $283
2017-03-23 Condo Mediterranean/Spanish 2235 Antonio Chula Vista, CA 91915 $449,000 1,655 sq. ft. 618,552 sq. ft. $271
2017-03-23 Condo Mediterranean/Spanish 713 Eastshore Terrace Dr Chula Vista, CA 91913 $325,000 937 sq. ft. $347
2017-03-23 Condo 1376 Normandy Chula Vista, CA 91913 $379,000 1,350 sq. ft. $281
2017-03-23 Condo 2208 Huntington Point Rd Chula Vista, CA 91914 $419,990 1,560 sq. ft. $269
2017-03-22 Condo 1307 Haglar Way Chula Vista, CA 91913 $370,000 1,458 sq. ft. $254
2017-03-22 Condo 761 Eastshore Terrace Chula Vista, CA 91913 $295,000 752 sq. ft. $392
2017-03-21 Condo 1543 Sonora Chula Vista, CA 91911 $345,000 1,460 sq. ft. 1,307 sq. ft. $236
2017-03-21 Condo 1350 Callejon Cervantes Chula Vista, CA 91910 $397,876 1,420 sq. ft. 52,708 sq. ft. $280
2017-03-21 Condo Mediterranean/Spanish 1561 Whisper Chula Vista, CA 91915 $479,900 1,659 sq. ft. 3,049 sq. ft. $289
2017-03-18 Condo 1434 Hilltop Drive Chula Vista, CA 91911 $260,000 1,036 sq. ft. $251
2017-03-18 Condo 1393 Burgundy Dr Chula Vista, CA 91913 $300,000 1,060 sq. ft. $283
2017-03-17 Condo 1584 Corte Seville Chula Vista, CA 91913 $429,000 1,830 sq. ft. 245,678 sq. ft. $234
2017-03-17 Condo 1749 Cripple Creek Drive Chula Vista, CA 91915 $430,000 1,728 sq. ft. $249
2017-03-17 Condo 1378 Callecita Aquilla Norte Chula Vista, CA 91911 $349,000 1,194 sq. ft. $292
2017-03-17 Condo 1750 Regency Chula Vista, CA 91911 $235,000 900 sq. ft. 1,307 sq. ft. $261
2017-03-17 Condo 1860 Platte River Chula Vista, CA 91913 $325,000 1,303 sq. ft. 67,518 sq. ft. $249
2017-03-17 Condo Contemporary 1271 Gold Run Chula Vista, CA 91913 $629,900 2,138 sq. ft. 3,920 sq. ft. $295
2017-03-17 Condo Mediterranean/Spanish 2022 Azure Cove Chula Vista, CA 91915 $409,900 1,525 sq. ft. $269
2017-03-16 Condo Mediterranean/Spanish 2256 Huntington Point Road Chula Vista, CA 91914 $375,000 1,458 sq. ft. 50,965 sq. ft. $257
2017-03-15 Condo 773 Brookstone Rd Chula Vista, CA 91913 $315,000 956 sq. ft. $330
2017-03-15 Condo 407 Sanibelle Circle Chula Vista, CA 91910 $362,000 1,156 sq. ft. $313
2017-03-15 Condo 695 Sea Vale Street Chula Vista, CA 91910 $280,000 723 sq. ft. $387
2017-03-15 Condo 1466 Caminito Sicilia Chula Vista, CA 91915 $540,000 2,230 sq. ft. $242
2017-03-14 Condo 1557 Nightfall Chula Vista, CA 91915 $439,000 1,682 sq. ft. $261
2017-03-12 Condo 1534 Caminito Santiago Chula Vista, CA 91913 $424,000 1,743 sq. ft. 245,678 sq. ft. $243
2017-03-11 Condo Mediterranean/Spanish 1815 Magenta Chula Vista, CA 91913 $429,000 1,604 sq. ft. 472,626 sq. ft. $267
2017-03-10 Condo Mediterranean/Spanish 776 Eastshore Terrace Chula Vista, CA 91913 $290,000 752 sq. ft. $386
2017-03-10 Condo 1812 Lime Court Chula Vista, CA 91913 $429,900 1,605 sq. ft. 472,626 sq. ft. $268
2017-03-10 Condo 1875 Champagne Ct Chula Vista, CA 91913 $349,900 1,175 sq. ft. $298
2017-03-10 Condo 1741 Cripple Creek Dr Chula Vista, CA 91915 $419,900 1,728 sq. ft. 329,749 sq. ft. $243
2017-03-10 Condo 1420 Caminito Lucca Chula Vista, CA 91915 $499,000 1,723 sq. ft. $290
2017-03-08 Condo 2501 La Costa Ave Chula Vista, CA 91915 $525,000 2,071 sq. ft. $254
2017-03-08 Condo 1521 Victory Lane Chula Vista, CA 91915 $390,000 1,331 sq. ft. $293
2017-03-08 Condo 2369 Corte Viejo Chula Vista, CA 91914 $355,000 1,285 sq. ft. $276
2017-03-08 Condo 2500 La Costa Chula Vista, CA 91915 $525,000 2,236 sq. ft. $235
2017-03-07 Condo 2185 Diamondback Chula Vista, CA 91915 $369,000 1,279 sq. ft. 671,260 sq. ft. $289
2017-03-07 Condo Mediterranean/Spanish 695 Sea Vale Chula Vista, CA 91910 $254,000 1,000 sq. ft. 68,389 sq. ft. $254
2017-03-07 Condo 2134 Dune Evening Drive Chula Vista, CA 91915 $450,000 1,713 sq. ft. $263
2017-03-07 Condo 528 Anita St Chula Vista, CA 91911 $215,000 854 sq. ft. $252
2017-03-07 Condo 2860 Athens Road Chula Vista, CA 91915 $365,000 1,062 sq. ft. $344
2017-03-06 Condo 1284 Haglar Way Chula Vista, CA 91913 $325,000 1,209 sq. ft. 60,984 sq. ft. $269
2017-03-06 Condo Contemporary 1537 El Prado Street Chula Vista, CA 91913 $359,000 1,163 sq. ft. $309
2017-03-05 Condo 1352 Serena Court Chula Vista, CA 91910 $290,000 1,228 sq. ft. $236
2017-03-04 Condo 970 Caminito Estrella Chula Vista, CA 91910 $409,000 1,210 sq. ft. $338
2017-03-04 Condo 2840 Athens Dr Chula Vista, CA 91915 $439,999 1,652 sq. ft. $266
2017-03-04 Condo 250 Otay Valley Rd Chula Vista, CA 91911 $345,000 1,392 sq. ft. $248
2017-03-02 Condo Mediterranean/Spanish 255 Salinas Drive Chula Vista, CA 91914 $369,000 1,244 sq. ft. $297
2017-03-01 Condo 1730 Cripple Creek Chula Vista, CA 91915 $435,000 1,728 sq. ft. $252
2017-03-01 Condo 813 Caminito Francisco Chula Vista, CA 91913 $329,000 1,141 sq. ft. $288
2017-03-01 Condo 279 Salinas Dr Chula Vista, CA 91914 $299,990 1,061 sq. ft. 446,054 sq. ft. $283
2017-03-01 Condo 285 Moss Street Chula Vista, CA 91911 $225,000 900 sq. ft. $250
2017-03-01 Condo 331 Caminito Barcelona Chula Vista, CA 91914 $390,000 1,342 sq. ft. $291
2017-03-01 Condo 1727 Melrose Ave Chula Vista, CA 91911 $274,900 1,225 sq. ft. $224
2017-03-01 Condo 2221 Capistrano Chula Vista, CA 91915 $439,999 1,860 sq. ft. 618,552 sq. ft. $237
2017-03-01 Condo 2860 Athens Road Chula Vista, CA 91915 $454,900 1,652 sq. ft. $275
2017-03-01 Condo 1093 Forest Lake Dr Chula Vista, CA 91915 $469,900 1,262 sq. ft. $372
2017-02-27 Condo 267 Rancho Drive Chula Vista, CA 91911 $345,000 1,613 sq. ft. $214
2017-02-26 Condo 1484 Canvas Chula Vista, CA 91913 $319,900 1,008 sq. ft. 76,230 sq. ft. $317
2017-02-26 Condo 490 Belle Vista Drive Chula Vista, CA 91910 $349,900 1,103 sq. ft. $317
2017-02-24 Condo 1383 Serena Chula Vista, CA 91910 $424,000 1,545 sq. ft. 95,832 sq. ft. $274
2017-02-23 Condo 2045 Barbados Cove Chula Vista, CA 91915 $345,000 1,139 sq. ft. $303
2017-02-23 Condo 358 Callesita Mariola Chula Vista, CA 91914 $429,995 1,554 sq. ft. $277
2017-02-23 Condo 369 Callesita Mariola Chula Vista, CA 91914 $389,900 1,342 sq. ft. $291
2017-02-22 Condo 2738 Crown Ridge Chula Vista, CA 91915 $405,000 1,646 sq. ft. $246
2017-02-20 Condo 1663 Sweet Gum Pl Chula Vista, CA 91915 $379,000 1,412 sq. ft. $268
2017-02-17 Condo Contemporary 1908 Caminito Alcala Chula Vista, CA 91913 $349,950 1,400 sq. ft. $250
2017-02-16 Condo 2236 Antonio Drive Chula Vista, CA 91915 $434,900 1,725 sq. ft. $252
2017-02-16 Condo Mediterranean/Spanish 1372 Nicolette Ave Chula Vista, CA 91913 $319,900 1,066 sq. ft. $300
2017-02-16 Condo 1967 Mount Bullion Chula Vista, CA 91913 $389,999 1,407 sq. ft. $277
2017-02-15 Condo Tudor/French Normandy 444 Colorado Ave Chula Vista, CA 91910 $230,000 1,136 sq. ft. 7,841 sq. ft. $202
2017-02-14 Condo 823 Caminito Alicia Chula Vista, CA 91911 $485,000 1,725 sq. ft. 56,192 sq. ft. $281
2017-02-14 Condo 2730 Sparta St Chula Vista, CA 91915 $439,000 1,652 sq. ft. $266
2017-02-14 Condo Mediterranean/Spanish 1823 Casa Morro Chula Vista, CA 91915 $499,000 1,993 sq. ft. $250
2017-02-13 Condo 980 Palm Valley Chula Vista, CA 91915 $429,000 1,600 sq. ft. 126,760 sq. ft. $268
2017-02-12 Condo Craftsman/Bungalow 1340 Caminito Dante Chula Vista, CA 91915 $499,000 2,136 sq. ft. 114,998 sq. ft. $234
2017-02-10 Condo 931 Caminito Estrella Chula Vista, CA 91910 $425,000 1,100 sq. ft. 14,810 sq. ft. $386
2017-02-10 Condo Mediterranean/Spanish 1338 Caminito Fabrizio Chula Vista, CA 91915 $335,000 1,604 sq. ft. $209
2017-02-09 Condo 2343 Picnic Ct Chula Vista, CA 91915 $603,000 2,150 sq. ft. $280
2017-02-09 Condo 1824 Peach Ct Chula Vista, CA 91913 $399,000 1,605 sq. ft. $249
2017-02-09 Condo 410 Woodlawn Ave Chula Vista, CA 91910 $245,000 1,024 sq. ft. $239
2017-02-08 Condo 1709 Cripple Creek Dr Chula Vista, CA 91915 $415,000 1,625 sq. ft. $255
2017-02-08 Condo 2131 Desert Bluffs Ct Chula Vista, CA 91915 $479,900 1,880 sq. ft. $255
2017-02-08 Condo 1741 Mendota Chula Vista, CA 91913 $520,000 1,987 sq. ft. 3,485 sq. ft. $262
2017-02-06 Condo 320 Plaza Los Osos Chula Vista, CA 91914 $615,000 2,616 sq. ft. $235
2017-02-06 Condo Mediterranean/Spanish 2115 Palo Alto Dr Chula Vista, CA 91914 $415,000 1,372 sq. ft. $302
2017-02-06 Condo 2089 Lakeridge Chula Vista, CA 91913 $319,900 1,045 sq. ft. 98,010 sq. ft. $306
2017-02-04 Condo 1733 Valley Bend Chula Vista, CA 91913 $580,000 2,116 sq. ft. $274
2017-02-04 Condo 1275 Battle Creek Chula Vista, CA 91913 $565,000 1,803 sq. ft. $313
2017-02-02 Condo 1450 Melrose Chula Vista, CA 91911 $240,000 980 sq. ft. 436 sq. ft. $245
2017-02-01 Condo 1190 5th Avenue Chula Vista, CA 91911 $375,000 1,509 sq. ft. $249
2017-01-31 Condo 1287 Blue Jean Chula Vista, CA 91913 $370,000 1,438 sq. ft. $257
2017-01-31 Condo 1722 Cripple Creek Chula Vista, CA 91915 $443,000 1,874 sq. ft. $236
2017-01-28 Condo 1056 Via Sinuoso Chula Vista, CA 91910 $625,000 2,213 sq. ft. $282
2017-01-26 Condo 1514 Caminito Soria Chula Vista, CA 91913 $420,000 1,735 sq. ft. $242
2017-01-25 Condo 622 J Street Chula Vista, CA 91910 $235,000 812 sq. ft. $289
2017-01-24 Condo 1549 Caminito Cremona Chula Vista, CA 91915 $430,000 1,445 sq. ft. $298
2017-01-24 Condo 2739 Castlehill Chula Vista, CA 91915 $345,000 1,216 sq. ft. $284
2017-01-21 Condo 1434 Hilltop Dr Chula Vista, CA 91911 $245,000 1,036 sq. ft. $236
2017-01-20 Condo 2057 Barbados Cv Chula Vista, CA 91915 $350,000 1,139 sq. ft. $307
2017-01-20 Condo 1450 Santa Diana Rd Chula Vista, CA 91913 $460,000 1,928 sq. ft. 395,525 sq. ft. $239
2017-01-18 Condo 1066 Mount Whitney Rd Chula Vista, CA 91913 $658,988 2,860 sq. ft. $230
2017-01-18 Condo 2107 Palo Alto Drive Chula Vista, CA 91914 $389,900 1,372 sq. ft. 446,054 sq. ft. $284
2017-01-17 Condo 145 4th Ave Chula Vista, CA 91910 $299,900 1,560 sq. ft. $192
2017-01-16 Condo Cape Cod 783 Brookstone Rd Chula Vista, CA 91913 $356,500 1,166 sq. ft. $306
2017-01-13 Condo 1388 Challis Chula Vista, CA 91913 $345,000 1,315 sq. ft. 524,462 sq. ft. $262
2017-01-12 Condo 1557 San Javier Chula Vista, CA 91913 $409,000 1,588 sq. ft. 19,166 sq. ft. $258
2017-01-12 Condo Mediterranean/Spanish 1434 Hilltop Drive Chula Vista, CA 91911 $259,900 1,036 sq. ft. $251
2017-01-11 Condo Contemporary 713 Brookstone Chula Vista, CA 91913 $339,000 1,166 sq. ft. 92,783 sq. ft. $291
2017-01-11 Condo Mediterranean/Spanish 1846 Rouge Drive Chula Vista, CA 91913 $369,000 1,500 sq. ft. $246
2017-01-10 Condo 1853 Rue Bienville Chula Vista, CA 91913 $345,000 1,478 sq. ft. 524,462 sq. ft. $233
2017-01-10 Condo 1446 Trouville Ln Chula Vista, CA 91913 $370,000 1,362 sq. ft. $272
2017-01-09 Condo 521 Orange Ave Chula Vista, CA 91911 $194,000 1,139 sq. ft. $170
2017-01-06 Condo 2233 Capistrano Way Chula Vista, CA 91915 $460,000 1,655 sq. ft. $278
2017-01-05 Condo 2019 Lakeridge Chula Vista, CA 91913 $306,000 1,045 sq. ft. 101,930 sq. ft. $293
2016-12-31 Condo 231 Rancho Drive Chula Vista, CA 91911 $300,000 1,212 sq. ft. $248
2016-12-20 Condo 753 Eastshore Terrace Chula Vista, CA 91913 $215,000 669 sq. ft. $321
2016-12-20 Condo Contemporary 1717 Cripple Creek Dr Chula Vista, CA 91915 $449,000 1,852 sq. ft. $242
2016-12-12 Condo 490 4th Chula Vista, CA 91910 $175,000 700 sq. ft. 36,590 sq. ft. $250
2016-12-07 Condo Contemporary 455 E Street Chula Vista, CA 91910 $329,900 1,040 sq. ft. $317
2016-12-05 Condo 2004 Caminito De La Cruz Chula Vista, CA 91913 $275,000 1,400 sq. ft. 77,537 sq. ft. $196
2016-12-03 Condo Contemporary 1689 Melrose Ave Chula Vista, CA 91911 $264,000 920 sq. ft. $287
2016-11-21 Condo Mediterranean/Spanish 1151 Arbusto Corte Chula Vista, CA 91910 $399,000 1,242 sq. ft. 142,006 sq. ft. $321
2016-11-15 Condo Contemporary 166 3rd Chula Vista, CA 91910 $269,000 1,086 sq. ft. 42,689 sq. ft. $248
2016-11-15 Condo Chula Vista, CA 91913 $320,000 1,315 sq. ft. 524,462 sq. ft. $243
2016-11-11 Condo 1650 Sourwood Pl Chula Vista, CA 91915 $374,500 1,412 sq. ft. $265
2016-11-11 Condo 268 Rancho Ct Chula Vista, CA 91911 $307,000 1,274 sq. ft. $241
2016-11-08 Condo 1420 Hilltop Drive Chula Vista, CA 91911 $250,000 1,004 sq. ft. 106,722 sq. ft. $249
2016-10-27 Condo 580 Arizona Chula Vista, CA 91911 $230,000 864 sq. ft. 18,731 sq. ft. $266
2016-10-27 Condo 695 Sea Vale Chula Vista, CA 91910 $259,000 1,000 sq. ft. $259
2016-10-26 Condo 2163 Dutchman Ct Chula Vista, CA 91915 $380,000 1,464 sq. ft. $260
2016-10-18 Condo 1685 Melrose Chula Vista, CA 91911 $230,000 889 sq. ft. 358,063 sq. ft. $259
2016-10-12 Condo Mediterranean/Spanish 1556 Corte Barcelona Chula Vista, CA 91913 $390,000 1,534 sq. ft. $254
2016-09-08 Condo 2165 Caminito Leonzio Chula Vista, CA 91915 $348,000 1,386 sq. ft. 80,150 sq. ft. $251
2016-09-08 Condo 1757 Cripple Creek Dr Chula Vista, CA 91915 $425,000 1,852 sq. ft. $229
2016-08-19 Condo 1441 Santa Lucia Road Chula Vista, CA 91913 $259,000 768 sq. ft. $337
2016-07-29 Condo 1355 Nicolette Ave Chula Vista, CA 91913 $265,000 959 sq. ft. 524,462 sq. ft. $276
2016-07-10 Condo Mediterranean/Spanish 2730 Sparta Road Chula Vista, CA 91915 $271,309 1,062 sq. ft. $255
2016-06-30 Condo Mediterranean/Spanish 370 Plaza Calimar Chula Vista, CA 91914 $520,000 2,557 sq. ft. $203
2016-06-15 Condo 2134 Northshore Chula Vista, CA 91913 $375,000 1,570 sq. ft. $239
2016-06-08 Condo Craftsman/Bungalow 2754 Silver Medal Road Chula Vista, CA 91915 $362,990 1,331 sq. ft. $273
2016-06-04 Condo 2150 Caminito Leonzio Chula Vista, CA 91915 $350,000 1,558 sq. ft. $225
2016-05-20 Condo Craftsman/Bungalow 2834 Athens Raod Chula Vista, CA 91915 $385,990 1,331 sq. ft. $290
2016-05-13 Condo 1446 Caminito Sardinia Chula Vista, CA 91915 $420,000 1,810 sq. ft. $232
2016-04-26 Condo 1194 Calle Tesoro Chula Vista, CA 91915 $427,000 1,671 sq. ft. 49,658 sq. ft. $256
2016-04-14 Condo 1854 Marielle Pl Chula Vista, CA 91913 $249,000 1,066 sq. ft. $234
2016-04-14 Condo 1450 Melrose Ave Chula Vista, CA 91911 $190,000 1,102 sq. ft. $172